Time;durP1;ratioP1;P1;durP2;ratioP2;P2;SDS_P1;SDS_P2;PMS_P1;PMS_P2;Temp;Humidity;BMP_temperature;BMP_pressure;BME280_temperature;BME280_humidity;BME280_pressure;Samples;Min_cycle;Max_cycle;Signal;HPM_P1;HPM_P2
2022/08/13 00:02:16;;;;;;;19.57;11.65;;;;;;;22.56;62.25;100658.50;1851163;77;21187;-83
2022/08/13 00:04:51;;;;;;;18.23;10.98;;;;;;;22.48;62.04;100651.84;1851615;77;20921;-82
2022/08/13 00:07:11;;;;;;;18.17;11.68;;;;;;;22.41;62.82;100648.16;1849012;77;20910;-84
2022/08/13 00:09:40;;;;;;;16.77;10.58;;;;;;;22.32;63.56;100652.20;1849313;77;20991;-83
2022/08/13 00:15:20;;;;;;;21.07;11.48;;;;;;;22.16;63.65;100648.14;1849329;76;21876;-84
2022/08/13 00:17:51;;;;;;;18.80;12.60;;;;;;;22.08;62.75;100638.81;1849637;77;21320;-83
2022/08/13 00:20:19;;;;;;;14.43;11.55;;;;;;;22.02;64.32;100626.95;1849598;77;20894;-83
2022/08/13 00:22:47;;;;;;;19.37;10.95;;;;;;;21.95;65.21;100625.95;1849451;77;20873;-82
2022/08/13 00:25:14;;;;;;;14.30;12.25;;;;;;;21.89;65.87;100631.95;1849446;77;20830;-85
2022/08/13 00:27:47;;;;;;;17.70;12.28;;;;;;;21.81;66.46;100628.78;1849278;76;21300;-85
2022/08/13 00:30:15;;;;;;;17.75;11.48;;;;;;;21.70;67.09;100627.77;1849432;77;20822;-84
2022/08/13 00:32:44;;;;;;;17.52;12.23;;;;;;;21.59;67.44;100624.91;1849247;76;21324;-81
2022/08/13 00:35:12;;;;;;;18.48;11.83;;;;;;;21.50;67.66;100620.05;1849699;77;20862;-83
2022/08/13 00:37:41;;;;;;;14.75;12.28;;;;;;;21.43;67.80;100628.84;1849503;76;20873;-82
2022/08/13 00:40:10;;;;;;;21.02;11.88;;;;;;;21.35;68.05;100618.97;1849253;77;21128;-84
2022/08/13 00:42:37;;;;;;;23.70;11.90;;;;;;;21.30;68.13;100615.96;1849262;77;21419;-84
2022/08/13 00:45:06;;;;;;;17.15;12.05;;;;;;;21.24;68.43;100622.77;1849441;77;20818;-83
2022/08/13 00:50:19;;;;;;;17.12;11.83;;;;;;;21.13;68.97;100616.90;1849743;77;20956;-83
2022/08/13 00:52:45;;;;;;;22.05;11.55;;;;;;;21.04;69.25;100618.19;1849767;77;21319;-84
2022/08/13 00:55:16;;;;;;;15.43;12.25;;;;;;;20.99;69.62;100619.68;1823655;77;21334;-83
2022/08/13 00:57:47;;;;;;;16.87;11.73;;;;;;;20.94;69.50;100618.80;1849228;77;20870;-83
2022/08/13 01:00:17;;;;;;;18.62;12.18;;;;;;;20.90;69.61;100618.30;1849532;77;20842;-83
2022/08/13 01:02:50;;;;;;;18.02;12.50;;;;;;;20.89;69.73;100627.27;1849569;77;20889;-83
2022/08/13 01:05:19;;;;;;;18.95;11.48;;;;;;;20.89;69.85;100623.78;1849748;77;21232;-81
2022/08/13 01:07:46;;;;;;;17.37;12.30;;;;;;;20.89;69.86;100630.45;1849481;77;20850;-81
2022/08/13 01:10:15;;;;;;;19.73;11.88;;;;;;;20.86;70.07;100634.77;1849209;77;20897;-82
2022/08/13 01:12:42;;;;;;;17.42;12.75;;;;;;;20.84;70.28;100636.77;1849560;77;20890;-81
2022/08/13 01:15:13;;;;;;;22.42;11.83;;;;;;;20.81;70.72;100638.39;1823229;77;20972;-82
2022/08/13 01:17:41;;;;;;;20.55;11.70;;;;;;;20.77;70.96;100629.89;1849361;77;21214;-82
2022/08/13 01:20:09;;;;;;;16.25;11.57;;;;;;;20.73;71.13;100630.37;1849257;77;20866;-82
2022/08/13 01:22:37;;;;;;;18.30;10.85;;;;;;;20.67;71.37;100627.32;1849515;76;20949;-82
2022/08/13 01:25:09;;;;;;;13.00;10.50;;;;;;;20.62;71.43;100624.30;1849373;76;20862;-81
2022/08/13 01:27:36;;;;;;;19.17;11.53;;;;;;;20.57;71.38;100622.61;1849327;77;20838;-82
2022/08/13 01:30:06;;;;;;;16.02;11.63;;;;;;;20.53;71.37;100624.39;1849376;77;21127;-81
2022/08/13 01:32:37;;;;;;;16.37;11.03;;;;;;;20.48;71.52;100613.70;1849400;77;21350;-80
2022/08/13 01:35:06;;;;;;;15.53;10.63;;;;;;;20.44;71.61;100607.01;1849307;77;20838;-82
2022/08/13 01:37:34;;;;;;;16.55;12.00;;;;;;;20.42;71.99;100614.82;1849283;77;20885;-81
2022/08/13 01:40:04;;;;;;;18.32;11.57;;;;;;;20.38;72.15;100618.28;1849279;76;20898;-83
2022/08/13 01:42:42;;;;;;;14.98;10.75;;;;;;;20.34;72.61;100624.08;1849410;76;21124;-83
2022/08/13 01:45:10;;;;;;;17.50;11.35;;;;;;;20.31;72.99;100615.08;1824435;77;20877;-84
2022/08/13 01:50:29;;;;;;;19.10;11.22;;;;;;;20.25;73.31;100613.39;1849811;77;21437;-83
2022/08/13 01:53:03;;;;;;;17.73;12.50;;;;;;;20.23;73.65;100610.52;1850511;77;20869;-83
2022/08/13 01:55:47;;;;;;;19.30;11.25;;;;;;;20.19;73.79;100607.34;1849070;77;21398;-84
2022/08/13 01:58:19;;;;;;;18.40;11.60;;;;;;;20.17;73.82;100613.81;1838074;76;21400;-85
2022/08/13 02:00:59;;;;;;;24.50;12.37;;;;;;;20.14;73.96;100610.94;1834800;77;20887;-83
2022/08/13 02:03:25;;;;;;;16.37;10.70;;;;;;;20.10;74.19;100618.92;1834725;76;20879;-84
2022/08/13 02:05:52;;;;;;;15.30;10.63;;;;;;;20.06;74.50;100613.56;1834928;77;20923;-84
2022/08/13 02:08:24;;;;;;;17.57;11.33;;;;;;;20.01;74.81;100608.70;1834843;77;21868;-83
2022/08/13 02:10:53;;;;;;;13.95;11.33;;;;;;;19.99;75.03;100608.52;1834626;76;21391;-82
2022/08/13 02:13:29;;;;;;;22.17;11.73;;;;;;;19.97;75.24;100610.50;1834821;78;20855;-84
2022/08/13 02:15:57;;;;;;;16.00;11.63;;;;;;;19.94;75.25;100608.95;1835010;76;20891;-84
2022/08/13 02:18:26;;;;;;;16.42;11.00;;;;;;;19.91;75.34;100597.29;1834774;77;20871;-84
2022/08/13 02:20:57;;;;;;;21.12;11.48;;;;;;;19.91;75.45;100599.95;1834701;78;21145;-84
2022/08/13 02:23:27;;;;;;;16.70;11.08;;;;;;;19.90;75.46;100592.97;1833910;77;20865;-84
2022/08/13 02:25:54;;;;;;;21.05;11.38;;;;;;;19.91;75.68;100600.45;1835043;77;20879;-84
2022/08/13 02:28:21;;;;;;;18.75;10.68;;;;;;;19.91;75.81;100592.47;1834822;77;20895;-83
2022/08/13 02:30:51;;;;;;;18.07;12.50;;;;;;;19.91;76.17;100600.45;1834732;77;20993;-83
2022/08/13 02:33:18;;;;;;;23.20;11.80;;;;;;;19.91;76.44;100603.95;1834751;77;21238;-83
2022/08/13 02:35:46;;;;;;;16.07;11.18;;;;;;;19.93;76.59;100594.48;1835315;77;21392;-84
2022/08/13 02:38:14;;;;;;;23.05;11.73;;;;;;;19.93;76.59;100599.30;1834778;77;20903;-84
2022/08/13 02:43:27;;;;;;;19.70;13.75;;;;;;;19.91;76.63;100599.95;1835141;77;21345;-83
2022/08/13 02:45:54;;;;;;;19.62;13.85;;;;;;;19.88;76.85;100599.77;1834844;76;21875;-83
2022/08/13 02:48:23;;;;;;;17.95;13.13;;;;;;;19.87;76.90;100595.92;1835109;77;21467;-83
2022/08/13 02:50:55;;;;;;;17.10;11.93;;;;;;;19.85;76.78;100601.42;1835447;77;21431;-83
2022/08/13 02:53:23;;;;;;;18.32;12.95;;;;;;;19.85;76.47;100614.72;1834851;77;20919;-83
2022/08/13 02:55:50;;;;;;;22.22;14.45;;;;;;;19.87;76.59;100618.04;1835031;77;20903;-84
2022/08/13 02:58:17;;;;;;;22.70;13.75;;;;;;;19.90;76.40;100614.73;1851903;77;21336;-83
2022/08/13 03:00:49;;;;;;;21.35;13.53;;;;;;;19.93;76.39;100617.94;1860219;77;20820;-84
2022/08/13 03:03:19;;;;;;;24.95;14.63;;;;;;;19.95;76.27;100613.30;1860569;77;20867;-84
2022/08/13 03:05:46;;;;;;;16.40;11.85;;;;;;;19.97;75.26;100617.98;1860439;76;20887;-83
2022/08/13 03:08:12;;;;;;;17.87;12.75;;;;;;;20.01;75.41;100614.02;1860044;77;20863;-84
2022/08/13 03:10:41;;;;;;;23.27;13.72;;;;;;;20.06;75.58;100607.73;1860036;76;21251;-85
2022/08/13 03:13:28;;;;;;;19.85;13.48;;;;;;;20.09;75.51;100611.41;1860091;77;21504;-84
2022/08/13 03:15:56;;;;;;;17.42;13.45;;;;;;;20.11;75.25;100611.27;1860132;77;20902;-82
2022/08/13 03:18:24;;;;;;;24.52;14.20;;;;;;;20.14;74.88;100610.94;1860386;77;20911;-83
2022/08/13 03:20:50;;;;;;;21.97;13.62;;;;;;;20.17;75.12;100607.16;1860396;76;20989;-84
2022/08/13 03:23:17;;;;;;;22.65;13.85;;;;;;;20.19;75.19;100606.52;1860407;76;21113;-84
2022/08/13 03:25:44;;;;;;;21.02;14.25;;;;;;;20.20;75.26;100610.33;1861754;77;20906;-84
2022/08/13 03:28:11;;;;;;;19.37;14.53;;;;;;;20.22;75.08;100611.02;1860656;77;20903;-83
2022/08/13 03:30:38;;;;;;;19.82;14.25;;;;;;;20.24;75.03;100609.53;1860488;77;20930;-83
2022/08/13 03:33:13;;;;;;;21.80;14.23;;;;;;;20.26;74.89;100609.72;1860211;76;21352;-85
2022/08/13 03:35:40;;;;;;;19.37;14.55;;;;;;;20.31;74.77;100606.59;1860206;77;21243;-83
2022/08/13 03:38:10;;;;;;;22.20;13.78;;;;;;;20.37;74.50;100603.81;1860237;77;20816;-83
2022/08/13 03:43:22;;;;;;;19.45;14.43;;;;;;;20.47;74.06;100609.34;1860711;77;20899;-84
2022/08/13 03:45:50;;;;;;;18.95;14.03;;;;;;;20.55;73.87;100609.09;1861084;76;20907;-84
2022/08/13 03:48:16;;;;;;;19.87;15.15;;;;;;;20.61;73.68;100606.66;1862689;76;21113;-81
2022/08/13 03:50:45;;;;;;;23.92;15.90;;;;;;;20.68;73.20;100606.86;1861587;77;20911;-84
2022/08/13 03:53:13;;;;;;;17.62;14.35;;;;;;;20.75;72.98;100609.73;1860129;77;20951;-83
2022/08/13 03:55:41;;;;;;;20.25;14.33;;;;;;;20.80;72.67;100601.58;1860147;77;20907;-83
2022/08/13 03:58:08;;;;;;;23.87;15.70;;;;;;;20.87;72.33;100604.45;1855538;77;20961;-84
2022/08/13 04:00:47;;;;;;;24.50;15.90;;;;;;;20.93;72.60;100602.48;1849459;77;21142;-84
2022/08/13 04:03:21;;;;;;;24.45;16.62;;;;;;;20.98;72.26;100600.16;1849317;76;20961;-85
2022/08/13 04:05:52;;;;;;;17.80;14.40;;;;;;;21.05;72.43;100599.02;1848878;77;21315;-84
2022/08/13 04:08:20;;;;;;;28.38;15.70;;;;;;;21.13;72.56;100599.56;1849500;77;20885;-84
2022/08/13 04:10:47;;;;;;;30.17;16.42;;;;;;;21.18;72.65;100594.57;1849579;77;20877;-83
2022/08/13 04:13:18;;;;;;;22.48;15.35;;;;;;;21.25;72.95;100595.08;1849307;76;21142;-84
2022/08/13 04:15:46;;;;;;;24.30;19.35;;;;;;;21.31;73.03;100591.77;1849390;77;21380;-85
2022/08/13 04:18:13;;;;;;;21.85;17.48;;;;;;;21.40;71.35;100593.96;1849356;77;20961;-85
2022/08/13 04:20:42;;;;;;;19.98;15.38;;;;;;;21.51;70.51;100594.19;1849366;77;20925;-84
2022/08/13 04:23:16;;;;;;;26.05;15.23;;;;;;;21.68;71.33;100583.05;1849620;76;20960;-84
2022/08/13 04:25:43;;;;;;;23.87;17.05;;;;;;;21.82;71.86;100583.72;1849493;77;21228;-84
2022/08/13 04:28:11;;;;;;;18.07;16.20;;;;;;;22.00;71.49;100589.39;1849450;77;20925;-83
2022/08/13 04:30:41;;;;;;;27.00;17.95;;;;;;;22.15;69.52;100595.73;1849382;77;21552;-86
2022/08/13 04:33:11;;;;;;;19.73;15.93;;;;;;;22.32;67.47;100592.08;1849572;77;20936;-85
2022/08/13 04:35:39;;;;;;;23.18;17.15;;;;;;;22.53;65.98;100588.84;1848564;76;21461;-84
2022/08/13 04:38:06;;;;;;;21.10;15.93;;;;;;;22.74;65.57;100589.64;1849494;77;21273;-85
2022/08/13 04:40:38;;;;;;;26.97;14.75;;;;;;;22.95;64.26;100586.37;1850287;77;20908;-84
2022/08/13 04:43:05;;;;;;;20.20;15.10;;;;;;;23.18;63.05;100582.95;1849542;77;20901;-83
2022/08/13 04:45:34;;;;;;;20.95;15.13;;;;;;;23.41;62.92;100576.31;1849797;77;20885;-83
2022/08/13 04:48:09;;;;;;;20.88;15.90;;;;;;;23.62;62.22;100576.16;1850242;77;20905;-83
2022/08/13 04:50:35;;;;;;;19.87;14.93;;;;;;;23.82;61.56;100572.02;1849782;77;21338;-83
2022/08/13 04:53:06;;;;;;;24.87;14.83;;;;;;;24.02;60.99;100580.90;1849612;77;20908;-83
2022/08/13 04:55:33;;;;;;;18.62;14.53;;;;;;;24.19;60.26;100577.88;1849300;77;20885;-83
2022/08/13 04:58:04;;;;;;;19.30;16.75;;;;;;;24.43;60.05;100580.48;1852604;77;20954;-83
2022/08/13 05:00:36;;;;;;;22.10;17.70;;;;;;;24.64;59.05;100580.63;1859873;77;21004;-84
2022/08/13 05:03:10;;;;;;;23.55;18.90;;;;;;;24.83;57.89;100572.52;1859696;76;21263;-84
2022/08/13 05:05:36;;;;;;;22.87;18.27;;;;;;;25.02;56.79;100571.11;1860113;77;20875;-82
2022/08/13 05:08:07;;;;;;;26.25;18.77;;;;;;;25.25;56.78;100577.70;1860306;77;20898;-84
2022/08/13 05:10:38;;;;;;;24.55;18.45;;;;;;;25.58;56.11;100573.20;1860177;76;21321;-83
2022/08/13 05:13:32;;;;;;;23.67;18.45;;;;;;;26.00;55.42;100561.61;1860506;77;20883;-83
2022/08/13 05:16:03;;;;;;;20.60;16.85;;;;;;;26.50;54.25;100557.48;1860278;77;21292;-81
2022/08/13 05:18:32;;;;;;;26.82;17.42;;;;;;;27.15;52.77;100558.55;1859934;77;20965;-82
2022/08/13 05:21:03;;;;;;;20.27;17.07;;;;;;;27.66;51.40;100561.58;1860253;77;21503;-81
2022/08/13 05:23:34;;;;;;;21.37;17.70;;;;;;;28.14;50.15;100555.69;1860213;76;20896;-83
2022/08/13 05:26:01;;;;;;;21.00;16.82;;;;;;;28.64;48.75;100563.61;1860150;77;20868;-81
2022/08/13 05:28:28;;;;;;;21.90;17.27;;;;;;;29.11;47.12;100552.11;1860237;77;21274;-81
2022/08/13 05:30:54;;;;;;;22.60;15.55;;;;;;;29.55;46.51;100549.03;1860072;76;20899;-82
2022/08/13 05:33:23;;;;;;;21.77;16.75;;;;;;;29.91;45.91;100550.23;1860121;77;20907;-82
2022/08/13 05:35:57;;;;;;;20.60;15.43;;;;;;;30.15;45.06;100545.03;1860020;77;21392;-83
2022/08/13 05:38:25;;;;;;;17.65;15.25;;;;;;;30.43;44.21;100538.31;1860023;77;20899;-83
2022/08/13 05:40:59;;;;;;;17.65;14.68;;;;;;;30.70;42.94;100539.64;1860086;77;21270;-81
2022/08/13 05:43:30;;;;;;;21.15;16.52;;;;;;;30.95;42.20;100531.98;1860207;77;20894;-81
2022/08/13 05:45:59;;;;;;;21.65;17.20;;;;;;;31.27;42.17;100533.92;1860885;77;20987;-82
2022/08/13 05:48:29;;;;;;;22.58;16.05;;;;;;;31.63;41.85;100536.20;1860574;77;21404;-83
2022/08/13 05:51:00;;;;;;;19.73;16.12;;;;;;;32.04;41.07;100522.81;1860090;76;20910;-83
2022/08/13 05:53:28;;;;;;;19.07;15.03;;;;;;;32.42;40.00;100533.98;1860116;77;21241;-84
2022/08/13 05:55:54;;;;;;;19.10;16.02;;;;;;;32.72;38.84;100528.09;1859956;77;20816;-83
2022/08/13 05:58:22;;;;;;;16.65;14.90;;;;;;;32.97;38.68;100528.61;1859791;77;20899;-84
2022/08/13 06:03:35;;;;;;;17.87;13.50;;;;;;;33.50;37.73;100527.91;1860241;77;21384;-84
2022/08/13 06:06:08;;;;;;;16.57;13.90;;;;;;;33.80;37.23;100534.42;1860050;77;21108;-85
2022/08/13 06:08:40;;;;;;;15.10;13.62;;;;;;;34.05;36.78;100538.60;1860004;77;21384;-85
2022/08/13 06:11:11;;;;;;;16.32;13.40;;;;;;;34.20;36.35;100534.77;1860176;76;20879;-86
2022/08/13 06:13:38;;;;;;;15.08;13.50;;;;;;;34.41;36.02;100534.48;1860184;77;20958;-84
2022/08/13 06:16:13;;;;;;;15.20;13.15;;;;;;;34.65;35.47;100532.92;1859901;77;21372;-84
2022/08/13 06:18:48;;;;;;;17.50;13.90;;;;;;;34.88;35.01;100534.02;1859909;77;21128;-85
2022/08/13 06:21:13;;;;;;;15.27;13.77;;;;;;;35.12;34.95;100539.69;1858806;77;21128;-83
2022/08/13 06:23:42;;;;;;;24.65;22.25;;;;;;;35.38;34.02;100536.70;1859877;77;20903;-84
2022/08/13 06:26:10;;;;;;;15.48;13.43;;;;;;;35.56;33.54;100536.30;1859815;77;21531;-84
2022/08/13 06:28:37;;;;;;;15.25;13.75;;;;;;;35.74;33.74;100535.11;1859932;77;20909;-83
2022/08/13 06:31:08;;;;;;;17.45;13.55;;;;;;;35.90;33.53;100536.84;1859992;77;21119;-84
2022/08/13 06:33:36;;;;;;;15.03;13.38;;;;;;;36.09;33.38;100530.97;1860040;76;20895;-83
2022/08/13 06:36:07;;;;;;;15.55;12.78;;;;;;;36.34;32.62;100537.13;1859958;77;21031;-83
2022/08/13 06:38:43;;;;;;;18.27;12.95;;;;;;;36.52;32.32;100533.11;1859353;77;20872;-85
2022/08/13 06:41:11;;;;;;;14.87;12.03;;;;;;;36.51;30.82;100538.31;1860147;76;20899;-85
2022/08/13 06:43:45;;;;;;;14.28;11.22;;;;;;;36.36;30.86;100536.33;1860229;77;21109;-85
2022/08/13 06:46:12;;;;;;;15.75;11.57;;;;;;;36.32;31.10;100529.75;1861254;77;20923;-83
2022/08/13 06:48:42;;;;;;;14.68;11.55;;;;;;;36.29;30.99;100527.01;1860886;77;20919;-85
2022/08/13 06:51:11;;;;;;;12.30;11.15;;;;;;;36.24;30.65;100531.09;1860043;77;20930;-85
2022/08/13 06:53:41;;;;;;;11.70;10.50;;;;;;;36.19;30.91;100541.15;1860137;77;21310;-84
2022/08/13 06:56:16;;;;;;;14.15;11.75;;;;;;;36.19;30.84;100542.52;1859937;77;21199;-84
2022/08/13 06:58:45;;;;;;;12.78;11.45;;;;;;;36.25;30.95;100539.55;1858418;77;21587;-84
2022/08/13 07:01:19;;;;;;;14.23;10.72;;;;;;;36.40;31.30;100540.17;1859911;77;20966;-85
2022/08/13 07:03:46;;;;;;;11.85;10.80;;;;;;;36.63;31.01;100544.94;1859615;77;20919;-83
2022/08/13 07:06:22;;;;;;;13.80;11.55;;;;;;;36.78;30.26;100556.48;1860060;77;20867;-83
2022/08/13 07:08:48;;;;;;;15.00;11.12;;;;;;;36.77;29.92;100551.53;1859575;77;21219;-84
2022/08/13 07:13:41;;;;;;;15.65;12.00;;;;;;;36.80;29.77;100557.00;1884439;75;22444;-85
2022/08/13 07:16:10;;;;;;;12.98;11.68;;;;;;;36.80;30.19;100558.37;1860775;76;20966;-85
2022/08/13 07:18:38;;;;;;;16.87;12.47;;;;;;;36.99;30.16;100562.26;1830283;77;21212;-83
2022/08/13 07:21:12;;;;;;;18.12;14.85;;;;;;;37.25;29.94;100557.69;1860787;77;20872;-83
2022/08/13 07:23:39;;;;;;;14.23;11.80;;;;;;;37.47;29.36;100556.63;1861170;77;21367;-84
2022/08/13 07:26:06;;;;;;;17.12;12.78;;;;;;;37.62;29.39;100549.81;1860760;77;20997;-83
2022/08/13 07:28:34;;;;;;;17.65;11.57;;;;;;;37.82;29.21;100546.77;1861033;77;20835;-84
2022/08/13 07:31:05;;;;;;;12.43;11.08;;;;;;;38.02;29.30;100545.41;1860663;76;21191;-84
2022/08/13 07:33:30;;;;;;;17.73;11.25;;;;;;;38.27;28.73;100540.95;1860607;77;20931;-84
2022/08/13 07:36:08;;;;;;;17.65;11.68;;;;;;;38.46;28.23;100541.95;1860920;77;21459;-83
2022/08/13 07:38:36;;;;;;;12.95;10.58;;;;;;;38.61;27.59;100541.66;1857957;77;20907;-84
2022/08/13 07:41:03;;;;;;;13.18;11.80;;;;;;;38.65;27.69;100540.00;1860955;77;20876;-84
2022/08/13 07:43:33;;;;;;;15.70;10.63;;;;;;;38.72;28.01;100532.28;1861438;77;21285;-83
2022/08/13 07:46:10;;;;;;;11.50;10.50;;;;;;;38.91;26.63;100533.28;1861424;76;20930;-85
2022/08/13 07:48:38;;;;;;;13.18;10.58;;;;;;;38.94;26.56;100542.33;1860945;76;20985;-85
2022/08/13 07:51:18;;;;;;;13.20;11.18;;;;;;;38.82;26.85;100539.09;1860885;77;21407;-85
2022/08/13 07:53:41;;;;;;;15.80;11.53;;;;;;;38.85;26.69;100536.33;1860105;77;20824;-84
2022/08/13 07:56:07;;;;;;;15.53;10.18;;;;;;;38.98;26.39;100528.87;1860959;77;21121;-83
2022/08/13 07:58:36;;;;;;;11.70;10.30;;;;;;;39.08;26.42;100531.53;1860717;77;21329;-83
2022/08/13 08:01:04;;;;;;;18.10;10.20;;;;;;;39.21;26.50;100523.77;1860731;77;20863;-84
2022/08/13 08:03:37;;;;;;;15.55;9.53;;;;;;;39.36;26.09;100525.84;1860767;77;20836;-83
2022/08/13 08:06:05;;;;;;;13.13;8.80;;;;;;;39.58;26.28;100523.22;1860770;77;20879;-84
2022/08/13 08:08:33;;;;;;;18.85;11.08;;;;;;;39.85;25.72;100523.27;1861030;77;21219;-83
2022/08/13 08:11:01;;;;;;;16.37;9.63;;;;;;;39.96;24.99;100523.41;1830258;77;21028;-84
2022/08/13 08:13:34;;;;;;;14.47;9.70;;;;;;;40.08;25.47;100520.25;1851382;77;20889;-83
2022/08/13 08:16:03;;;;;;;18.00;13.98;;;;;;;40.27;24.96;100517.60;1850186;77;21414;-84
2022/08/13 08:18:32;;;;;;;17.12;10.13;;;;;;;40.43;25.18;100510.78;1850025;77;20889;-83
2022/08/13 08:21:08;;;;;;;17.07;10.10;;;;;;;40.56;25.08;100516.93;1850001;77;21212;-83
2022/08/13 08:23:35;;;;;;;17.07;9.33;;;;;;;40.78;24.81;100506.75;1849974;77;20869;-84
2022/08/13 08:26:07;;;;;;;19.12;8.75;;;;;;;40.96;23.93;100511.17;1849483;77;20916;-85
2022/08/13 08:28:34;;;;;;;23.55;9.45;;;;;;;41.01;23.71;100514.64;1849439;77;20936;-84
2022/08/13 08:31:07;;;;;;;19.60;9.30;;;;;;;41.03;23.66;100510.80;1849993;77;20857;-83
2022/08/13 08:33:34;;;;;;;13.48;8.90;;;;;;;41.09;23.01;100509.57;1852052;77;21246;-83
2022/08/13 08:36:03;;;;;;;18.42;9.80;;;;;;;41.03;23.31;100503.34;1850614;77;20952;-85
2022/08/13 08:44:02;;;;;;;15.45;8.83;;;;;;;41.01;23.67;100486.32;1850743;76;21083;-84
2022/08/13 08:46:33;;;;;;;12.30;7.97;;;;;;;41.03;23.41;100488.78;1849723;77;21121;-83
2022/08/13 08:48:57;;;;;;;23.15;8.15;;;;;;;41.02;23.46;100492.07;1849327;77;20917;-83
2022/08/13 08:51:24;;;;;;;14.00;8.68;;;;;;;40.95;23.39;100486.14;1850012;77;20890;-83
2022/08/13 08:53:51;;;;;;;13.03;8.85;;;;;;;40.94;23.09;100484.52;1849382;77;20913;-83
2022/08/13 08:56:20;;;;;;;16.50;8.78;;;;;;;40.91;23.03;100476.84;1823415;77;20893;-83
2022/08/13 08:58:49;;;;;;;19.00;8.08;;;;;;;40.97;23.48;100481.97;1850007;77;21249;-84
2022/08/13 09:01:21;;;;;;;14.28;8.28;;;;;;;41.12;23.88;100470.47;1849399;77;21003;-85
2022/08/13 09:03:46;;;;;;;14.38;8.20;;;;;;;41.33;23.06;100475.08;1849068;76;20885;-84
2022/08/13 09:06:16;;;;;;;16.80;8.93;;;;;;;41.45;23.00;100474.62;1849464;76;21394;-84
2022/08/13 09:08:41;;;;;;;19.95;9.50;;;;;;;41.45;22.36;100480.94;1823877;77;20889;-84
2022/08/13 09:11:12;;;;;;;23.87;9.00;;;;;;;41.23;22.25;100470.58;1849322;77;21216;-84
2022/08/13 09:13:36;;;;;;;23.05;9.48;;;;;;;40.94;22.50;100468.82;1837254;77;21024;-83
2022/08/13 09:16:04;;;;;;;20.97;8.30;;;;;;;40.72;23.03;100460.37;1834776;77;20906;-83
2022/08/13 09:18:31;;;;;;;17.65;9.45;;;;;;;40.71;23.16;100458.19;1834966;77;20863;-84
2022/08/13 09:20:58;;;;;;;24.45;11.12;;;;;;;40.67;23.04;100448.86;1834864;77;21383;-84
2022/08/13 09:23:25;;;;;;;23.83;10.05;;;;;;;40.69;23.61;100451.30;1834742;77;21062;-83
2022/08/13 09:25:52;;;;;;;22.60;10.60;;;;;;;40.85;23.54;100452.74;1834753;77;20882;-84
2022/08/13 09:28:27;;;;;;;25.80;10.10;;;;;;;41.00;23.23;100443.41;1834928;76;21404;-84
2022/08/13 09:30:52;;;;;;;20.97;8.83;;;;;;;41.12;22.01;100456.70;1832933;77;20942;-84
2022/08/13 09:33:21;;;;;;;28.77;9.88;;;;;;;41.11;21.81;100453.15;1835344;77;20926;-84
2022/08/13 09:35:49;;;;;;;25.30;8.95;;;;;;;41.10;21.83;100446.56;1834811;77;21127;-84
2022/08/13 09:38:15;;;;;;;18.40;8.83;;;;;;;41.09;22.16;100449.03;1834812;77;20954;-83
2022/08/13 09:40:59;;;;;;;20.45;9.75;;;;;;;41.06;21.86;100440.83;1834987;77;20906;-84
2022/08/13 09:43:31;;;;;;;24.20;8.55;;;;;;;41.10;21.82;100431.42;1835491;77;20887;-84
2022/08/13 09:45:58;;;;;;;20.65;9.40;;;;;;;41.18;21.66;100452.23;1807246;78;20887;-83
2022/08/13 09:48:28;;;;;;;29.87;10.10;;;;;;;41.17;21.52;100436.00;1834902;78;21881;-84
2022/08/13 09:50:54;;;;;;;25.32;8.48;;;;;;;41.10;21.27;100430.86;1834694;76;20871;-85
2022/08/13 09:53:21;;;;;;;19.37;8.33;;;;;;;41.00;21.05;100427.73;1834760;78;20871;-84
2022/08/13 09:55:48;;;;;;;20.48;8.70;;;;;;;40.95;21.72;100424.23;1834686;77;21436;-83
2022/08/13 09:58:15;;;;;;;25.05;9.93;;;;;;;41.01;22.17;100423.85;1834984;77;20871;-84
2022/08/13 10:00:45;;;;;;;22.52;9.90;;;;;;;41.18;22.15;100411.52;1834752;77;21218;-84
2022/08/13 10:03:12;;;;;;;22.52;8.95;;;;;;;41.40;22.21;100419.91;1834359;76;20902;-84
2022/08/13 10:05:39;;;;;;;23.30;8.85;;;;;;;41.59;21.00;100419.83;1834747;78;20966;-84
2022/08/13 10:08:09;;;;;;;20.68;10.78;;;;;;;41.54;21.26;100417.16;1834877;77;20943;-86
2022/08/13 10:10:35;;;;;;;21.75;11.35;;;;;;;41.50;21.16;100411.19;1834389;77;20824;-85
2022/08/13 10:13:03;;;;;;;26.30;11.78;;;;;;;41.49;21.48;100407.63;1790636;77;21160;-84
2022/08/13 10:15:30;;;;;;;18.12;10.20;;;;;;;41.47;21.41;100419.50;1861163;77;20958;-83
2022/08/13 10:17:59;;;;;;;19.30;8.48;;;;;;;41.17;22.08;100409.86;1860753;77;20848;-83
2022/08/13 10:20:33;;;;;;;22.00;9.80;;;;;;;40.97;22.47;100400.00;1860115;77;21384;-85
2022/08/13 10:23:02;;;;;;;19.32;9.95;;;;;;;40.93;22.08;100408.02;1859756;77;20927;-83
2022/08/13 10:25:29;;;;;;;22.05;8.93;;;;;;;40.88;22.30;100399.87;1860084;77;21108;-85
2022/08/13 10:27:56;;;;;;;23.25;8.73;;;;;;;40.90;22.98;100392.70;1860183;77;20871;-86
2022/08/13 10:30:25;;;;;;;21.75;9.25;;;;;;;41.05;22.72;100407.57;1860077;77;20942;-83
2022/08/13 10:32:55;;;;;;;20.77;9.08;;;;;;;41.14;21.89;100420.92;1860461;77;20926;-84
2022/08/13 10:35:27;;;;;;;20.00;9.40;;;;;;;41.12;21.68;100399.73;1860032;77;20875;-84
2022/08/13 10:37:57;;;;;;;20.88;9.15;;;;;;;41.14;22.42;100393.41;1860315;77;21230;-85
2022/08/13 10:40:24;;;;;;;24.80;9.40;;;;;;;41.23;22.61;100392.14;1860092;77;20820;-83
2022/08/13 10:42:52;;;;;;;21.52;9.85;;;;;;;41.41;21.81;100395.37;1860422;76;20954;-85
2022/08/13 10:45:24;;;;;;;20.10;9.55;;;;;;;41.42;21.29;100390.14;1860392;77;20958;-85
2022/08/13 10:47:54;;;;;;;20.48;7.70;;;;;;;41.28;21.00;100385.73;1860014;77;20907;-85
2022/08/13 10:50:29;;;;;;;16.40;8.38;;;;;;;41.19;21.04;100396.05;1860202;77;21621;-85
2022/08/13 10:52:51;;;;;;;25.88;8.80;;;;;;;41.01;20.79;100392.78;1859108;77;20906;-84
2022/08/13 10:55:18;;;;;;;21.50;8.25;;;;;;;40.85;21.17;100385.92;1859940;76;20919;-84
2022/08/13 10:57:45;;;;;;;22.07;9.13;;;;;;;40.78;21.64;100385.74;1861068;76;20914;-83
2022/08/13 11:00:14;;;;;;;23.02;10.10;;;;;;;40.60;20.85;100386.56;1860733;77;20997;-84
2022/08/13 11:02:42;;;;;;;21.70;7.97;;;;;;;40.36;20.92;100389.41;1860200;77;21143;-84
2022/08/13 11:05:10;;;;;;;19.55;8.08;;;;;;;40.15;21.30;100381.96;1860112;76;20915;-82
2022/08/13 11:07:38;;;;;;;17.95;7.83;;;;;;;40.00;20.85;100389.87;1860028;77;20943;-83
2022/08/13 11:10:07;;;;;;;20.92;7.15;;;;;;;39.85;20.73;100375.77;1860068;77;20903;-83
2022/08/13 11:12:36;;;;;;;13.30;6.03;;;;;;;39.73;20.77;100382.20;1858744;76;20922;-83
2022/08/13 11:15:07;;;;;;;15.88;7.50;;;;;;;39.66;21.56;100380.37;1849474;77;21120;-84
2022/08/13 11:17:34;;;;;;;20.13;8.47;;;;;;;39.61;21.64;100388.11;1849610;77;20858;-83
2022/08/13 11:20:13;;;;;;;20.52;7.75;;;;;;;39.61;22.03;100381.25;1849330;77;20869;-84
2022/08/13 11:22:32;;;;;;;16.90;10.68;;;;;;;39.64;21.28;100378.47;1847996;77;20929;-84
2022/08/13 11:25:05;;;;;;;13.80;7.33;;;;;;;39.63;21.35;100379.59;1849404;77;20834;-85
2022/08/13 11:27:33;;;;;;;16.12;8.68;;;;;;;39.61;21.76;100376.32;1849197;76;21168;-84
2022/08/13 11:30:00;;;;;;;27.82;8.23;;;;;;;39.68;22.47;100378.15;1849245;76;21415;-85
2022/08/13 11:32:26;;;;;;;17.77;7.62;;;;;;;39.74;22.66;100376.98;1849286;76;20940;-85
2022/08/13 11:34:53;;;;;;;22.20;6.87;;;;;;;39.73;22.17;100369.31;1849392;76;20916;-84
2022/08/13 11:37:19;;;;;;;14.23;6.92;;;;;;;39.61;22.31;100368.08;1849382;77;20944;-84
2022/08/13 11:39:46;;;;;;;18.12;6.70;;;;;;;39.46;21.93;100375.93;1849624;77;21110;-84
2022/08/13 11:42:12;;;;;;;14.03;7.33;;;;;;;39.28;22.51;100385.13;1849917;77;20901;-84
2022/08/13 11:44:39;;;;;;;25.55;7.47;;;;;;;39.14;22.35;100377.33;1851063;77;20984;-84
2022/08/13 11:47:06;;;;;;;17.07;7.00;;;;;;;38.88;22.78;100374.78;1849349;77;20913;-84